sensor_id;sensor_type;location;lat;lon;timestamp;P1;durP1;ratioP1;P2;durP2;ratioP2
7199;SDS011;3641;49.082;8.200;2023-04-03T00:00:55;5.50;;;3.10;;
7199;SDS011;3641;49.082;8.200;2023-04-03T00:03:22;7.15;;;3.63;;
7199;SDS011;3641;49.082;8.200;2023-04-03T00:05:50;7.07;;;3.53;;
7199;SDS011;3641;49.082;8.200;2023-04-03T00:08:16;6.10;;;3.10;;
7199;SDS011;3641;49.082;8.200;2023-04-03T00:10:43;6.22;;;2.90;;
7199;SDS011;3641;49.082;8.200;2023-04-03T00:13:09;6.20;;;3.05;;
7199;SDS011;3641;49.082;8.200;2023-04-03T00:15:36;4.47;;;2.85;;
7199;SDS011;3641;49.082;8.200;2023-04-03T00:18:03;6.90;;;3.45;;
7199;SDS011;3641;49.082;8.200;2023-04-03T00:20:30;9.27;;;3.45;;
7199;SDS011;3641;49.082;8.200;2023-04-03T00:22:59;6.18;;;3.17;;
7199;SDS011;3641;49.082;8.200;2023-04-03T00:25:26;6.82;;;3.05;;
7199;SDS011;3641;49.082;8.200;2023-04-03T00:27:52;5.15;;;2.90;;
7199;SDS011;3641;49.082;8.200;2023-04-03T00:30:20;4.85;;;2.50;;
7199;SDS011;3641;49.082;8.200;2023-04-03T00:32:47;6.40;;;2.90;;
7199;SDS011;3641;49.082;8.200;2023-04-03T00:35:14;5.63;;;2.80;;
7199;SDS011;3641;49.082;8.200;2023-04-03T00:37:41;5.28;;;2.83;;
7199;SDS011;3641;49.082;8.200;2023-04-03T00:40:10;9.32;;;2.83;;
7199;SDS011;3641;49.082;8.200;2023-04-03T00:42:39;5.25;;;2.40;;
7199;SDS011;3641;49.082;8.200;2023-04-03T00:45:27;5.55;;;2.85;;
7199;SDS011;3641;49.082;8.200;2023-04-03T00:47:58;3.88;;;2.55;;
7199;SDS011;3641;49.082;8.200;2023-04-03T00:50:26;4.97;;;2.60;;
7199;SDS011;3641;49.082;8.200;2023-04-03T00:52:54;4.70;;;2.67;;
7199;SDS011;3641;49.082;8.200;2023-04-03T00:55:23;4.85;;;2.58;;
7199;SDS011;3641;49.082;8.200;2023-04-03T00:57:51;6.05;;;2.85;;
7199;SDS011;3641;49.082;8.200;2023-04-03T01:00:19;5.82;;;3.08;;
7199;SDS011;3641;49.082;8.200;2023-04-03T01:02:47;11.93;;;3.35;;
7199;SDS011;3641;49.082;8.200;2023-04-03T01:05:14;5.60;;;2.90;;
7199;SDS011;3641;49.082;8.200;2023-04-03T01:07:43;4.95;;;2.72;;
7199;SDS011;3641;49.082;8.200;2023-04-03T01:10:10;5.07;;;2.65;;
7199;SDS011;3641;49.082;8.200;2023-04-03T01:12:41;5.57;;;2.70;;
7199;SDS011;3641;49.082;8.200;2023-04-03T01:15:09;5.95;;;2.70;;
7199;SDS011;3641;49.082;8.200;2023-04-03T01:17:38;4.50;;;2.35;;
7199;SDS011;3641;49.082;8.200;2023-04-03T01:23:11;7.03;;;3.67;;
7199;SDS011;3641;49.082;8.200;2023-04-03T01:25:49;6.20;;;2.83;;
7199;SDS011;3641;49.082;8.200;2023-04-03T01:28:19;4.07;;;2.45;;
7199;SDS011;3641;49.082;8.200;2023-04-03T01:30:47;4.43;;;2.53;;
7199;SDS011;3641;49.082;8.200;2023-04-03T01:33:18;4.13;;;2.53;;
7199;SDS011;3641;49.082;8.200;2023-04-03T01:35:45;4.50;;;2.70;;
7199;SDS011;3641;49.082;8.200;2023-04-03T01:38:11;6.45;;;2.78;;
7199;SDS011;3641;49.082;8.200;2023-04-03T01:40:38;5.63;;;2.40;;
7199;SDS011;3641;49.082;8.200;2023-04-03T01:43:04;4.22;;;2.70;;
7199;SDS011;3641;49.082;8.200;2023-04-03T01:45:31;4.80;;;2.63;;
7199;SDS011;3641;49.082;8.200;2023-04-03T01:47:57;4.25;;;2.60;;
7199;SDS011;3641;49.082;8.200;2023-04-03T01:50:25;3.67;;;2.50;;
7199;SDS011;3641;49.082;8.200;2023-04-03T01:52:51;4.40;;;2.63;;
7199;SDS011;3641;49.082;8.200;2023-04-03T01:55:18;4.40;;;2.80;;
7199;SDS011;3641;49.082;8.200;2023-04-03T01:57:44;3.50;;;2.42;;
7199;SDS011;3641;49.082;8.200;2023-04-03T02:00:11;6.22;;;2.97;;
7199;SDS011;3641;49.082;8.200;2023-04-03T02:02:39;3.50;;;2.33;;
7199;SDS011;3641;49.082;8.200;2023-04-03T02:05:06;6.20;;;2.40;;
7199;SDS011;3641;49.082;8.200;2023-04-03T02:07:34;6.95;;;2.40;;
7199;SDS011;3641;49.082;8.200;2023-04-03T02:10:01;5.57;;;2.65;;
7199;SDS011;3641;49.082;8.200;2023-04-03T02:12:27;8.05;;;2.70;;
7199;SDS011;3641;49.082;8.200;2023-04-03T02:14:54;4.45;;;2.67;;
7199;SDS011;3641;49.082;8.200;2023-04-03T02:17:20;5.80;;;2.83;;
7199;SDS011;3641;49.082;8.200;2023-04-03T02:19:47;5.65;;;2.75;;
7199;SDS011;3641;49.082;8.200;2023-04-03T02:22:13;4.75;;;2.75;;
7199;SDS011;3641;49.082;8.200;2023-04-03T02:24:41;7.28;;;2.70;;
7199;SDS011;3641;49.082;8.200;2023-04-03T02:27:08;5.13;;;3.20;;
7199;SDS011;3641;49.082;8.200;2023-04-03T02:29:34;4.95;;;2.67;;
7199;SDS011;3641;49.082;8.200;2023-04-03T02:32:01;5.35;;;2.67;;
7199;SDS011;3641;49.082;8.200;2023-04-03T02:34:27;6.90;;;2.58;;
7199;SDS011;3641;49.082;8.200;2023-04-03T02:36:54;5.13;;;2.65;;
7199;SDS011;3641;49.082;8.200;2023-04-03T02:39:20;5.57;;;2.63;;
7199;SDS011;3641;49.082;8.200;2023-04-03T02:41:48;5.38;;;2.35;;
7199;SDS011;3641;49.082;8.200;2023-04-03T02:44:15;3.30;;;2.25;;
7199;SDS011;3641;49.082;8.200;2023-04-03T02:46:42;5.00;;;2.60;;
7199;SDS011;3641;49.082;8.200;2023-04-03T02:49:09;6.40;;;3.05;;
7199;SDS011;3641;49.082;8.200;2023-04-03T02:51:35;3.65;;;2.28;;
7199;SDS011;3641;49.082;8.200;2023-04-03T02:54:02;5.97;;;2.65;;
7199;SDS011;3641;49.082;8.200;2023-04-03T02:56:29;5.63;;;3.08;;
7199;SDS011;3641;49.082;8.200;2023-04-03T02:58:56;3.95;;;2.30;;
7199;SDS011;3641;49.082;8.200;2023-04-03T03:01:23;7.10;;;2.33;;
7199;SDS011;3641;49.082;8.200;2023-04-03T03:03:49;5.65;;;2.78;;
7199;SDS011;3641;49.082;8.200;2023-04-03T03:06:16;4.50;;;2.20;;
7199;SDS011;3641;49.082;8.200;2023-04-03T03:08:43;5.85;;;2.60;;
7199;SDS011;3641;49.082;8.200;2023-04-03T03:11:10;5.78;;;2.45;;
7199;SDS011;3641;49.082;8.200;2023-04-03T03:13:36;4.22;;;2.60;;
7199;SDS011;3641;49.082;8.200;2023-04-03T03:16:05;3.88;;;2.40;;
7199;SDS011;3641;49.082;8.200;2023-04-03T03:18:32;5.07;;;2.92;;
7199;SDS011;3641;49.082;8.200;2023-04-03T03:20:59;4.38;;;2.10;;
7199;SDS011;3641;49.082;8.200;2023-04-03T03:23:28;4.32;;;2.35;;
7199;SDS011;3641;49.082;8.200;2023-04-03T03:25:57;4.18;;;2.25;;
7199;SDS011;3641;49.082;8.200;2023-04-03T03:28:24;7.03;;;2.55;;
7199;SDS011;3641;49.082;8.200;2023-04-03T03:30:51;6.70;;;2.92;;
7199;SDS011;3641;49.082;8.200;2023-04-03T03:33:19;4.47;;;2.30;;
7199;SDS011;3641;49.082;8.200;2023-04-03T03:35:45;6.80;;;2.30;;
7199;SDS011;3641;49.082;8.200;2023-04-03T03:38:12;8.35;;;2.63;;
7199;SDS011;3641;49.082;8.200;2023-04-03T03:40:38;5.57;;;2.45;;
7199;SDS011;3641;49.082;8.200;2023-04-03T03:43:05;3.95;;;2.13;;
7199;SDS011;3641;49.082;8.200;2023-04-03T03:45:31;5.80;;;2.35;;
7199;SDS011;3641;49.082;8.200;2023-04-03T03:47:58;5.57;;;2.53;;
7199;SDS011;3641;49.082;8.200;2023-04-03T03:50:26;5.13;;;2.45;;
7199;SDS011;3641;49.082;8.200;2023-04-03T03:52:52;5.82;;;2.47;;
7199;SDS011;3641;49.082;8.200;2023-04-03T03:55:19;6.40;;;2.70;;
7199;SDS011;3641;49.082;8.200;2023-04-03T03:57:45;5.72;;;2.58;;
7199;SDS011;3641;49.082;8.200;2023-04-03T04:00:12;5.63;;;2.40;;
7199;SDS011;3641;49.082;8.200;2023-04-03T04:02:39;5.28;;;2.40;;
7199;SDS011;3641;49.082;8.200;2023-04-03T04:05:06;7.70;;;3.03;;
7199;SDS011;3641;49.082;8.200;2023-04-03T04:07:34;6.30;;;2.85;;
7199;SDS011;3641;49.082;8.200;2023-04-03T04:10:00;5.53;;;2.60;;
7199;SDS011;3641;49.082;8.200;2023-04-03T04:12:27;5.13;;;2.40;;
7199;SDS011;3641;49.082;8.200;2023-04-03T04:14:53;7.40;;;2.83;;
7199;SDS011;3641;49.082;8.200;2023-04-03T04:17:20;6.20;;;2.63;;
7199;SDS011;3641;49.082;8.200;2023-04-03T04:19:47;5.68;;;2.63;;
7199;SDS011;3641;49.082;8.200;2023-04-03T04:22:13;7.40;;;2.60;;
7199;SDS011;3641;49.082;8.200;2023-04-03T04:24:41;6.47;;;3.35;;
7199;SDS011;3641;49.082;8.200;2023-04-03T04:27:08;4.38;;;2.47;;
7199;SDS011;3641;49.082;8.200;2023-04-03T04:29:35;3.75;;;2.40;;
7199;SDS011;3641;49.082;8.200;2023-04-03T04:32:02;9.25;;;2.67;;
7199;SDS011;3641;49.082;8.200;2023-04-03T04:34:28;4.07;;;2.45;;
7199;SDS011;3641;49.082;8.200;2023-04-03T04:36:55;6.32;;;3.00;;
7199;SDS011;3641;49.082;8.200;2023-04-03T04:39:22;6.80;;;2.88;;
7199;SDS011;3641;49.082;8.200;2023-04-03T04:41:50;6.55;;;2.42;;
7199;SDS011;3641;49.082;8.200;2023-04-03T04:44:16;6.55;;;2.63;;
7199;SDS011;3641;49.082;8.200;2023-04-03T04:46:42;7.32;;;2.92;;
7199;SDS011;3641;49.082;8.200;2023-04-03T04:49:09;4.95;;;3.25;;
7199;SDS011;3641;49.082;8.200;2023-04-03T04:51:35;5.07;;;3.38;;
7199;SDS011;3641;49.082;8.200;2023-04-03T04:54:02;6.75;;;3.20;;
7199;SDS011;3641;49.082;8.200;2023-04-03T04:56:28;6.45;;;3.05;;
7199;SDS011;3641;49.082;8.200;2023-04-03T04:58:56;6.93;;;3.30;;
7199;SDS011;3641;49.082;8.200;2023-04-03T05:01:23;11.85;;;3.95;;
7199;SDS011;3641;49.082;8.200;2023-04-03T05:03:49;7.05;;;3.40;;
7199;SDS011;3641;49.082;8.200;2023-04-03T05:06:16;5.88;;;3.13;;
7199;SDS011;3641;49.082;8.200;2023-04-03T05:08:42;4.55;;;3.00;;
7199;SDS011;3641;49.082;8.200;2023-04-03T05:11:09;7.00;;;3.30;;
7199;SDS011;3641;49.082;8.200;2023-04-03T05:13:35;6.72;;;3.25;;
7199;SDS011;3641;49.082;8.200;2023-04-03T05:16:03;6.22;;;3.47;;
7199;SDS011;3641;49.082;8.200;2023-04-03T05:18:30;5.95;;;3.33;;
7199;SDS011;3641;49.082;8.200;2023-04-03T05:20:57;7.25;;;4.38;;
7199;SDS011;3641;49.082;8.200;2023-04-03T05:23:23;5.20;;;3.20;;
7199;SDS011;3641;49.082;8.200;2023-04-03T05:25:50;8.05;;;3.35;;
7199;SDS011;3641;49.082;8.200;2023-04-03T05:28:16;7.13;;;3.10;;
7199;SDS011;3641;49.082;8.200;2023-04-03T05:30:43;6.07;;;3.25;;
7199;SDS011;3641;49.082;8.200;2023-04-03T05:33:10;6.55;;;3.17;;
7199;SDS011;3641;49.082;8.200;2023-04-03T05:35:39;6.18;;;3.40;;
7199;SDS011;3641;49.082;8.200;2023-04-03T05:38:06;5.18;;;2.80;;
7199;SDS011;3641;49.082;8.200;2023-04-03T05:40:33;6.22;;;3.20;;
7199;SDS011;3641;49.082;8.200;2023-04-03T05:42:59;6.43;;;3.70;;
7199;SDS011;3641;49.082;8.200;2023-04-03T05:45:26;7.88;;;3.20;;
7199;SDS011;3641;49.082;8.200;2023-04-03T05:47:52;5.88;;;3.10;;
7199;SDS011;3641;49.082;8.200;2023-04-03T05:50:20;7.30;;;3.60;;
7199;SDS011;3641;49.082;8.200;2023-04-03T05:52:47;6.43;;;3.45;;
7199;SDS011;3641;49.082;8.200;2023-04-03T05:55:17;7.00;;;3.60;;
7199;SDS011;3641;49.082;8.200;2023-04-03T05:57:43;7.97;;;3.65;;
7199;SDS011;3641;49.082;8.200;2023-04-03T06:00:11;6.85;;;4.07;;
7199;SDS011;3641;49.082;8.200;2023-04-03T06:02:40;5.80;;;3.55;;
7199;SDS011;3641;49.082;8.200;2023-04-03T06:05:07;12.40;;;5.03;;
7199;SDS011;3641;49.082;8.200;2023-04-03T06:07:37;5.10;;;3.38;;
7199;SDS011;3641;49.082;8.200;2023-04-03T06:10:04;6.60;;;3.47;;
7199;SDS011;3641;49.082;8.200;2023-04-03T06:12:32;6.47;;;3.67;;
7199;SDS011;3641;49.082;8.200;2023-04-03T06:14:59;7.07;;;3.92;;
7199;SDS011;3641;49.082;8.200;2023-04-03T06:17:26;8.02;;;3.92;;
7199;SDS011;3641;49.082;8.200;2023-04-03T06:19:52;7.10;;;3.55;;
7199;SDS011;3641;49.082;8.200;2023-04-03T06:22:19;5.70;;;3.53;;
7199;SDS011;3641;49.082;8.200;2023-04-03T06:24:47;8.18;;;3.83;;
7199;SDS011;3641;49.082;8.200;2023-04-03T06:27:14;5.75;;;3.42;;
7199;SDS011;3641;49.082;8.200;2023-04-03T06:29:40;6.00;;;3.25;;
7199;SDS011;3641;49.082;8.200;2023-04-03T06:32:07;9.00;;;3.80;;
7199;SDS011;3641;49.082;8.200;2023-04-03T06:34:33;5.93;;;3.45;;
7199;SDS011;3641;49.082;8.200;2023-04-03T06:37:00;7.45;;;3.70;;
7199;SDS011;3641;49.082;8.200;2023-04-03T06:39:26;7.55;;;3.70;;
7199;SDS011;3641;49.082;8.200;2023-04-03T06:41:54;6.25;;;3.40;;
7199;SDS011;3641;49.082;8.200;2023-04-03T06:44:21;6.55;;;3.40;;
7199;SDS011;3641;49.082;8.200;2023-04-03T06:46:47;10.07;;;3.90;;
7199;SDS011;3641;49.082;8.200;2023-04-03T06:49:14;5.70;;;3.35;;
7199;SDS011;3641;49.082;8.200;2023-04-03T06:51:40;8.40;;;3.42;;
7199;SDS011;3641;49.082;8.200;2023-04-03T06:54:07;6.32;;;3.35;;
7199;SDS011;3641;49.082;8.200;2023-04-03T06:56:34;8.07;;;3.85;;
7199;SDS011;3641;49.082;8.200;2023-04-03T06:59:02;6.50;;;3.78;;
7199;SDS011;3641;49.082;8.200;2023-04-03T07:01:29;7.30;;;3.63;;
7199;SDS011;3641;49.082;8.200;2023-04-03T07:03:56;6.85;;;3.50;;
7199;SDS011;3641;49.082;8.200;2023-04-03T07:06:23;8.38;;;3.80;;
7199;SDS011;3641;49.082;8.200;2023-04-03T07:08:51;7.28;;;3.88;;
7199;SDS011;3641;49.082;8.200;2023-04-03T07:11:18;8.57;;;4.00;;
7199;SDS011;3641;49.082;8.200;2023-04-03T07:13:45;8.25;;;3.97;;
7199;SDS011;3641;49.082;8.200;2023-04-03T07:16:13;8.48;;;4.05;;
7199;SDS011;3641;49.082;8.200;2023-04-03T07:18:40;6.97;;;4.25;;
7199;SDS011;3641;49.082;8.200;2023-04-03T07:21:06;6.35;;;3.88;;
7199;SDS011;3641;49.082;8.200;2023-04-03T07:23:33;7.65;;;3.63;;
7199;SDS011;3641;49.082;8.200;2023-04-03T07:25:59;6.07;;;3.75;;
7199;SDS011;3641;49.082;8.200;2023-04-03T07:28:26;8.00;;;3.85;;
7199;SDS011;3641;49.082;8.200;2023-04-03T07:30:53;6.70;;;3.70;;
7199;SDS011;3641;49.082;8.200;2023-04-03T07:33:27;6.88;;;3.60;;
7199;SDS011;3641;49.082;8.200;2023-04-03T07:35:54;7.75;;;3.78;;
7199;SDS011;3641;49.082;8.200;2023-04-03T07:38:20;6.93;;;3.53;;
7199;SDS011;3641;49.082;8.200;2023-04-03T07:40:47;7.18;;;3.22;;
7199;SDS011;3641;49.082;8.200;2023-04-03T07:43:14;7.28;;;3.72;;
7199;SDS011;3641;49.082;8.200;2023-04-03T07:45:41;8.73;;;4.13;;
7199;SDS011;3641;49.082;8.200;2023-04-03T07:48:08;9.25;;;3.88;;
7199;SDS011;3641;49.082;8.200;2023-04-03T07:50:36;6.65;;;4.38;;
7199;SDS011;3641;49.082;8.200;2023-04-03T07:53:03;7.32;;;3.55;;
7199;SDS011;3641;49.082;8.200;2023-04-03T07:55:31;7.38;;;3.13;;
7199;SDS011;3641;49.082;8.200;2023-04-03T07:57:58;7.43;;;3.28;;
7199;SDS011;3641;49.082;8.200;2023-04-03T08:00:24;5.88;;;3.20;;
7199;SDS011;3641;49.082;8.200;2023-04-03T08:02:51;7.78;;;3.30;;
7199;SDS011;3641;49.082;8.200;2023-04-03T08:05:17;6.68;;;3.00;;
7199;SDS011;3641;49.082;8.200;2023-04-03T08:07:46;6.22;;;3.00;;
7199;SDS011;3641;49.082;8.200;2023-04-03T08:10:13;7.10;;;3.42;;
7199;SDS011;3641;49.082;8.200;2023-04-03T08:12:40;5.95;;;3.08;;
7199;SDS011;3641;49.082;8.200;2023-04-03T08:15:08;9.13;;;3.10;;
7199;SDS011;3641;49.082;8.200;2023-04-03T08:17:35;4.78;;;3.03;;
7199;SDS011;3641;49.082;8.200;2023-04-03T08:20:02;4.07;;;2.60;;
7199;SDS011;3641;49.082;8.200;2023-04-03T08:22:29;7.47;;;3.00;;
7199;SDS011;3641;49.082;8.200;2023-04-03T08:24:57;8.35;;;3.47;;
7199;SDS011;3641;49.082;8.200;2023-04-03T08:27:23;6.63;;;3.20;;
7199;SDS011;3641;49.082;8.200;2023-04-03T08:29:50;5.57;;;2.83;;
7199;SDS011;3641;49.082;8.200;2023-04-03T08:32:16;6.25;;;2.97;;
7199;SDS011;3641;49.082;8.200;2023-04-03T08:34:43;6.22;;;3.10;;
7199;SDS011;3641;49.082;8.200;2023-04-03T08:37:11;6.68;;;3.05;;
7199;SDS011;3641;49.082;8.200;2023-04-03T08:39:37;6.60;;;3.38;;
7199;SDS011;3641;49.082;8.200;2023-04-03T08:42:07;9.32;;;3.30;;
7199;SDS011;3641;49.082;8.200;2023-04-03T08:44:44;6.13;;;2.78;;
7199;SDS011;3641;49.082;8.200;2023-04-03T08:47:18;5.90;;;3.13;;
7199;SDS011;3641;49.082;8.200;2023-04-03T08:49:51;5.03;;;2.60;;
7199;SDS011;3641;49.082;8.200;2023-04-03T08:52:19;5.35;;;2.67;;
7199;SDS011;3641;49.082;8.200;2023-04-03T08:54:50;5.28;;;2.40;;
7199;SDS011;3641;49.082;8.200;2023-04-03T08:57:26;6.22;;;2.63;;
7199;SDS011;3641;49.082;8.200;2023-04-03T08:59:56;6.28;;;3.35;;
7199;SDS011;3641;49.082;8.200;2023-04-03T09:02:25;5.07;;;2.40;;
7199;SDS011;3641;49.082;8.200;2023-04-03T09:04:57;7.07;;;2.80;;
7199;SDS011;3641;49.082;8.200;2023-04-03T09:07:28;4.63;;;2.50;;
7199;SDS011;3641;49.082;8.200;2023-04-03T09:09:59;7.53;;;2.70;;
7199;SDS011;3641;49.082;8.200;2023-04-03T09:12:32;5.65;;;2.63;;
7199;SDS011;3641;49.082;8.200;2023-04-03T09:15:05;5.38;;;2.67;;
7199;SDS011;3641;49.082;8.200;2023-04-03T09:17:40;7.10;;;2.40;;
7199;SDS011;3641;49.082;8.200;2023-04-03T09:20:15;4.20;;;2.40;;
7199;SDS011;3641;49.082;8.200;2023-04-03T09:22:48;5.50;;;2.38;;
7199;SDS011;3641;49.082;8.200;2023-04-03T09:25:18;5.40;;;2.60;;
7199;SDS011;3641;49.082;8.200;2023-04-03T09:27:49;5.63;;;2.30;;
7199;SDS011;3641;49.082;8.200;2023-04-03T09:30:16;8.43;;;3.05;;
7199;SDS011;3641;49.082;8.200;2023-04-03T09:32:44;5.63;;;2.65;;
7199;SDS011;3641;49.082;8.200;2023-04-03T09:35:16;5.60;;;2.30;;
7199;SDS011;3641;49.082;8.200;2023-04-03T09:37:45;5.80;;;2.55;;
7199;SDS011;3641;49.082;8.200;2023-04-03T09:40:30;5.43;;;2.13;;
7199;SDS011;3641;49.082;8.200;2023-04-03T09:43:18;4.20;;;2.00;;
7199;SDS011;3641;49.082;8.200;2023-04-03T09:45:52;4.82;;;2.10;;
7199;SDS011;3641;49.082;8.200;2023-04-03T09:48:21;6.70;;;2.58;;
7199;SDS011;3641;49.082;8.200;2023-04-03T09:50:58;4.30;;;2.17;;
7199;SDS011;3641;49.082;8.200;2023-04-03T09:53:30;3.63;;;1.92;;
7199;SDS011;3641;49.082;8.200;2023-04-03T09:56:00;6.03;;;2.20;;
7199;SDS011;3641;49.082;8.200;2023-04-03T09:58:30;5.50;;;2.20;;
7199;SDS011;3641;49.082;8.200;2023-04-03T10:01:00;4.75;;;2.22;;
7199;SDS011;3641;49.082;8.200;2023-04-03T10:03:28;2.25;;;1.75;;
7199;SDS011;3641;49.082;8.200;2023-04-03T10:05:57;6.05;;;2.17;;
7199;SDS011;3641;49.082;8.200;2023-04-03T10:08:25;4.00;;;1.98;;
7199;SDS011;3641;49.082;8.200;2023-04-03T10:11:13;4.55;;;1.90;;
7199;SDS011;3641;49.082;8.200;2023-04-03T10:13:53;3.38;;;1.77;;
7199;SDS011;3641;49.082;8.200;2023-04-03T10:16:24;4.15;;;1.77;;
7199;SDS011;3641;49.082;8.200;2023-04-03T10:19:01;3.53;;;1.70;;
7199;SDS011;3641;49.082;8.200;2023-04-03T10:21:40;6.47;;;2.80;;
7199;SDS011;3641;49.082;8.200;2023-04-03T10:24:13;5.72;;;1.98;;
7199;SDS011;3641;49.082;8.200;2023-04-03T10:26:48;4.65;;;1.80;;
7199;SDS011;3641;49.082;8.200;2023-04-03T10:29:25;4.70;;;1.65;;
7199;SDS011;3641;49.082;8.200;2023-04-03T10:32:02;4.90;;;2.08;;
7199;SDS011;3641;49.082;8.200;2023-04-03T10:34:37;5.35;;;1.63;;
7199;SDS011;3641;49.082;8.200;2023-04-03T10:37:09;4.38;;;1.90;;
7199;SDS011;3641;49.082;8.200;2023-04-03T10:39:44;6.22;;;1.80;;
7199;SDS011;3641;49.082;8.200;2023-04-03T10:42:20;4.28;;;1.45;;
7199;SDS011;3641;49.082;8.200;2023-04-03T10:45:01;3.95;;;1.70;;
7199;SDS011;3641;49.082;8.200;2023-04-03T10:47:36;3.78;;;1.30;;
7199;SDS011;3641;49.082;8.200;2023-04-03T10:50:20;2.85;;;1.55;;
7199;SDS011;3641;49.082;8.200;2023-04-03T10:52:54;4.40;;;1.65;;
7199;SDS011;3641;49.082;8.200;2023-04-03T10:55:30;4.95;;;1.60;;
7199;SDS011;3641;49.082;8.200;2023-04-03T10:58:03;3.15;;;1.30;;
7199;SDS011;3641;49.082;8.200;2023-04-03T11:00:35;2.45;;;1.40;;
7199;SDS011;3641;49.082;8.200;2023-04-03T11:03:06;2.60;;;1.40;;
7199;SDS011;3641;49.082;8.200;2023-04-03T11:05:41;6.95;;;1.90;;
7199;SDS011;3641;49.082;8.200;2023-04-03T11:08:11;4.35;;;1.50;;
7199;SDS011;3641;49.082;8.200;2023-04-03T11:10:46;4.75;;;1.70;;
7199;SDS011;3641;49.082;8.200;2023-04-03T11:13:17;3.60;;;1.83;;
7199;SDS011;3641;49.082;8.200;2023-04-03T11:15:49;4.63;;;1.50;;
7199;SDS011;3641;49.082;8.200;2023-04-03T11:18:20;4.45;;;1.55;;
7199;SDS011;3641;49.082;8.200;2023-04-03T11:20:53;3.80;;;1.75;;
7199;SDS011;3641;49.082;8.200;2023-04-03T11:23:28;4.60;;;1.70;;
7199;SDS011;3641;49.082;8.200;2023-04-03T11:25:59;4.30;;;1.58;;
7199;SDS011;3641;49.082;8.200;2023-04-03T11:28:33;4.13;;;1.60;;
7199;SDS011;3641;49.082;8.200;2023-04-03T11:31:02;6.75;;;1.58;;
7199;SDS011;3641;49.082;8.200;2023-04-03T11:33:41;3.13;;;1.50;;
7199;SDS011;3641;49.082;8.200;2023-04-03T11:36:18;7.45;;;1.30;;
7199;SDS011;3641;49.082;8.200;2023-04-03T11:38:48;6.40;;;1.45;;
7199;SDS011;3641;49.082;8.200;2023-04-03T11:41:17;4.45;;;1.70;;
7199;SDS011;3641;49.082;8.200;2023-04-03T11:43:56;2.90;;;1.50;;
7199;SDS011;3641;49.082;8.200;2023-04-03T11:49:50;4.38;;;1.20;;
7199;SDS011;3641;49.082;8.200;2023-04-03T11:55:41;6.45;;;1.55;;
7199;SDS011;3641;49.082;8.200;2023-04-03T11:58:16;3.33;;;1.40;;
7199;SDS011;3641;49.082;8.200;2023-04-03T12:00:50;3.72;;;1.50;;
7199;SDS011;3641;49.082;8.200;2023-04-03T12:03:33;3.63;;;1.33;;
7199;SDS011;3641;49.082;8.200;2023-04-03T12:09:26;3.75;;;1.40;;
7199;SDS011;3641;49.082;8.200;2023-04-03T12:12:21;3.35;;;1.30;;
7199;SDS011;3641;49.082;8.200;2023-04-03T12:14:53;3.97;;;1.65;;
7199;SDS011;3641;49.082;8.200;2023-04-03T12:17:21;4.75;;;1.70;;
7199;SDS011;3641;49.082;8.200;2023-04-03T12:19:52;4.95;;;1.38;;
7199;SDS011;3641;49.082;8.200;2023-04-03T12:22:19;3.10;;;1.48;;
7199;SDS011;3641;49.082;8.200;2023-04-03T12:24:47;3.67;;;1.40;;
7199;SDS011;3641;49.082;8.200;2023-04-03T12:27:21;3.97;;;1.50;;
7199;SDS011;3641;49.082;8.200;2023-04-03T12:29:51;5.72;;;1.88;;
7199;SDS011;3641;49.082;8.200;2023-04-03T12:32:29;3.88;;;1.52;;
7199;SDS011;3641;49.082;8.200;2023-04-03T12:41:14;4.30;;;1.48;;
7199;SDS011;3641;49.082;8.200;2023-04-03T12:44:01;4.93;;;1.60;;
7199;SDS011;3641;49.082;8.200;2023-04-03T12:46:42;4.97;;;1.63;;
7199;SDS011;3641;49.082;8.200;2023-04-03T12:49:18;3.22;;;1.60;;
7199;SDS011;3641;49.082;8.200;2023-04-03T12:51:54;4.55;;;1.77;;
7199;SDS011;3641;49.082;8.200;2023-04-03T12:54:22;4.78;;;1.73;;
7199;SDS011;3641;49.082;8.200;2023-04-03T12:56:52;3.80;;;1.67;;
7199;SDS011;3641;49.082;8.200;2023-04-03T12:59:34;3.83;;;1.52;;
7199;SDS011;3641;49.082;8.200;2023-04-03T13:02:01;3.70;;;1.33;;
7199;SDS011;3641;49.082;8.200;2023-04-03T13:04:32;4.50;;;1.60;;
7199;SDS011;3641;49.082;8.200;2023-04-03T13:07:00;3.55;;;1.70;;
7199;SDS011;3641;49.082;8.200;2023-04-03T13:09:28;5.43;;;1.65;;
7199;SDS011;3641;49.082;8.200;2023-04-03T13:11:56;4.20;;;1.67;;
7199;SDS011;3641;49.082;8.200;2023-04-03T13:14:27;5.50;;;1.40;;
7199;SDS011;3641;49.082;8.200;2023-04-03T13:16:55;6.07;;;1.73;;
7199;SDS011;3641;49.082;8.200;2023-04-03T13:19:23;3.05;;;1.58;;
7199;SDS011;3641;49.082;8.200;2023-04-03T13:21:53;5.53;;;1.73;;
7199;SDS011;3641;49.082;8.200;2023-04-03T13:24:26;6.38;;;2.33;;
7199;SDS011;3641;49.082;8.200;2023-04-03T13:26:55;4.68;;;2.10;;
7199;SDS011;3641;49.082;8.200;2023-04-03T13:29:23;3.30;;;1.63;;
7199;SDS011;3641;49.082;8.200;2023-04-03T13:31:52;3.47;;;1.60;;
7199;SDS011;3641;49.082;8.200;2023-04-03T13:34:20;4.10;;;1.75;;
7199;SDS011;3641;49.082;8.200;2023-04-03T13:36:55;4.32;;;1.60;;
7199;SDS011;3641;49.082;8.200;2023-04-03T13:39:23;3.85;;;1.80;;
7199;SDS011;3641;49.082;8.200;2023-04-03T13:41:53;4.85;;;1.90;;
7199;SDS011;3641;49.082;8.200;2023-04-03T13:44:26;4.57;;;2.00;;
7199;SDS011;3641;49.082;8.200;2023-04-03T13:46:55;3.85;;;1.77;;
7199;SDS011;3641;49.082;8.200;2023-04-03T13:49:27;5.10;;;2.22;;
7199;SDS011;3641;49.082;8.200;2023-04-03T13:51:57;2.97;;;1.73;;
7199;SDS011;3641;49.082;8.200;2023-04-03T13:54:25;4.97;;;2.00;;
7199;SDS011;3641;49.082;8.200;2023-04-03T13:56:58;4.57;;;2.20;;
7199;SDS011;3641;49.082;8.200;2023-04-03T13:59:28;5.28;;;2.40;;
7199;SDS011;3641;49.082;8.200;2023-04-03T14:02:09;6.55;;;2.45;;
7199;SDS011;3641;49.082;8.200;2023-04-03T14:04:46;5.40;;;2.03;;
7199;SDS011;3641;49.082;8.200;2023-04-03T14:07:18;5.20;;;1.95;;
7199;SDS011;3641;49.082;8.200;2023-04-03T14:09:46;6.30;;;2.22;;
7199;SDS011;3641;49.082;8.200;2023-04-03T14:12:15;5.63;;;2.15;;
7199;SDS011;3641;49.082;8.200;2023-04-03T14:14:44;5.30;;;2.05;;
7199;SDS011;3641;49.082;8.200;2023-04-03T14:17:13;3.50;;;1.65;;
7199;SDS011;3641;49.082;8.200;2023-04-03T14:19:42;6.38;;;1.90;;
7199;SDS011;3641;49.082;8.200;2023-04-03T14:22:12;4.13;;;1.85;;
7199;SDS011;3641;49.082;8.200;2023-04-03T14:24:41;4.03;;;2.30;;
7199;SDS011;3641;49.082;8.200;2023-04-03T14:27:10;7.72;;;2.65;;
7199;SDS011;3641;49.082;8.200;2023-04-03T14:29:42;4.90;;;2.40;;
7199;SDS011;3641;49.082;8.200;2023-04-03T14:32:10;5.00;;;2.10;;
7199;SDS011;3641;49.082;8.200;2023-04-03T14:34:37;4.70;;;1.83;;
7199;SDS011;3641;49.082;8.200;2023-04-03T14:37:04;6.10;;;2.45;;
7199;SDS011;3641;49.082;8.200;2023-04-03T14:39:31;10.07;;;2.92;;
7199;SDS011;3641;49.082;8.200;2023-04-03T14:41:57;6.57;;;2.25;;
7199;SDS011;3641;49.082;8.200;2023-04-03T14:44:25;5.50;;;1.90;;
7199;SDS011;3641;49.082;8.200;2023-04-03T14:46:52;6.15;;;2.65;;
7199;SDS011;3641;49.082;8.200;2023-04-03T14:49:20;4.10;;;2.13;;
7199;SDS011;3641;49.082;8.200;2023-04-03T14:51:49;6.53;;;2.38;;
7199;SDS011;3641;49.082;8.200;2023-04-03T14:54:19;5.22;;;1.85;;
7199;SDS011;3641;49.082;8.200;2023-04-03T14:56:50;4.38;;;2.22;;
7199;SDS011;3641;49.082;8.200;2023-04-03T14:59:17;4.70;;;2.38;;
7199;SDS011;3641;49.082;8.200;2023-04-03T15:01:46;6.68;;;1.90;;
7199;SDS011;3641;49.082;8.200;2023-04-03T15:04:13;5.45;;;1.70;;
7199;SDS011;3641;49.082;8.200;2023-04-03T15:06:41;5.40;;;2.38;;
7199;SDS011;3641;49.082;8.200;2023-04-03T15:09:11;4.45;;;1.95;;
7199;SDS011;3641;49.082;8.200;2023-04-03T15:11:45;4.32;;;1.50;;
7199;SDS011;3641;49.082;8.200;2023-04-03T15:14:12;3.80;;;2.15;;
7199;SDS011;3641;49.082;8.200;2023-04-03T15:16:38;4.72;;;1.90;;
7199;SDS011;3641;49.082;8.200;2023-04-03T15:19:06;4.03;;;1.88;;
7199;SDS011;3641;49.082;8.200;2023-04-03T15:21:32;7.03;;;2.00;;
7199;SDS011;3641;49.082;8.200;2023-04-03T15:23:59;4.30;;;1.67;;
7199;SDS011;3641;49.082;8.200;2023-04-03T15:26:25;3.97;;;1.52;;
7199;SDS011;3641;49.082;8.200;2023-04-03T15:28:52;5.50;;;1.88;;
7199;SDS011;3641;49.082;8.200;2023-04-03T15:31:18;7.30;;;1.90;;
7199;SDS011;3641;49.082;8.200;2023-04-03T15:33:45;5.88;;;2.40;;
7199;SDS011;3641;49.082;8.200;2023-04-03T15:36:13;4.00;;;1.77;;
7199;SDS011;3641;49.082;8.200;2023-04-03T15:38:39;3.58;;;1.75;;
7199;SDS011;3641;49.082;8.200;2023-04-03T15:41:06;3.90;;;1.70;;
7199;SDS011;3641;49.082;8.200;2023-04-03T15:43:32;5.22;;;1.90;;
7199;SDS011;3641;49.082;8.200;2023-04-03T15:46:00;3.80;;;1.63;;